sensor_id;sensor_type;location;lat;lon;timestamp;P1;durP1;ratioP1;P2;durP2;ratioP2
44822;SDS011;51097;51.984;5.650;2024-01-27T00:02:17;13.80;;;4.43;;
44822;SDS011;51097;51.984;5.650;2024-01-27T00:04:43;13.90;;;4.82;;
44822;SDS011;51097;51.984;5.650;2024-01-27T00:07:09;16.17;;;4.63;;
44822;SDS011;51097;51.984;5.650;2024-01-27T00:09:34;10.85;;;3.60;;
44822;SDS011;51097;51.984;5.650;2024-01-27T00:12:00;11.35;;;4.93;;
44822;SDS011;51097;51.984;5.650;2024-01-27T00:14:26;16.83;;;4.55;;
44822;SDS011;51097;51.984;5.650;2024-01-27T00:16:52;12.82;;;4.53;;
44822;SDS011;51097;51.984;5.650;2024-01-27T00:19:17;21.27;;;4.53;;
44822;SDS011;51097;51.984;5.650;2024-01-27T00:21:43;18.42;;;6.18;;
44822;SDS011;51097;51.984;5.650;2024-01-27T00:24:09;13.45;;;5.28;;
44822;SDS011;51097;51.984;5.650;2024-01-27T00:26:34;17.30;;;4.28;;
44822;SDS011;51097;51.984;5.650;2024-01-27T00:29:00;10.73;;;4.15;;
44822;SDS011;51097;51.984;5.650;2024-01-27T00:31:25;13.82;;;3.97;;
44822;SDS011;51097;51.984;5.650;2024-01-27T00:33:51;10.07;;;3.67;;
44822;SDS011;51097;51.984;5.650;2024-01-27T00:36:16;13.25;;;4.05;;
44822;SDS011;51097;51.984;5.650;2024-01-27T00:38:43;15.65;;;4.30;;
44822;SDS011;51097;51.984;5.650;2024-01-27T00:41:08;14.05;;;4.32;;
44822;SDS011;51097;51.984;5.650;2024-01-27T00:43:37;14.95;;;5.22;;
44822;SDS011;51097;51.984;5.650;2024-01-27T00:46:03;13.30;;;3.67;;
44822;SDS011;51097;51.984;5.650;2024-01-27T00:48:28;16.85;;;5.63;;
44822;SDS011;51097;51.984;5.650;2024-01-27T00:50:54;14.88;;;4.47;;
44822;SDS011;51097;51.984;5.650;2024-01-27T00:53:20;13.77;;;5.63;;
44822;SDS011;51097;51.984;5.650;2024-01-27T00:55:45;14.38;;;5.00;;
44822;SDS011;51097;51.984;5.650;2024-01-27T00:58:11;18.60;;;4.60;;
44822;SDS011;51097;51.984;5.650;2024-01-27T01:00:36;16.42;;;5.00;;
44822;SDS011;51097;51.984;5.650;2024-01-27T01:03:02;20.70;;;4.45;;
44822;SDS011;51097;51.984;5.650;2024-01-27T01:05:27;13.20;;;5.22;;
44822;SDS011;51097;51.984;5.650;2024-01-27T01:07:53;17.35;;;4.90;;
44822;SDS011;51097;51.984;5.650;2024-01-27T01:10:19;13.18;;;4.65;;
44822;SDS011;51097;51.984;5.650;2024-01-27T01:12:45;16.90;;;4.25;;
44822;SDS011;51097;51.984;5.650;2024-01-27T01:15:10;15.93;;;5.53;;
44822;SDS011;51097;51.984;5.650;2024-01-27T01:17:36;15.73;;;4.68;;
44822;SDS011;51097;51.984;5.650;2024-01-27T01:20:01;18.05;;;5.40;;
44822;SDS011;51097;51.984;5.650;2024-01-27T01:22:27;20.40;;;4.35;;
44822;SDS011;51097;51.984;5.650;2024-01-27T01:24:53;14.95;;;4.30;;
44822;SDS011;51097;51.984;5.650;2024-01-27T01:27:18;17.55;;;4.57;;
44822;SDS011;51097;51.984;5.650;2024-01-27T01:29:46;15.45;;;4.28;;
44822;SDS011;51097;51.984;5.650;2024-01-27T01:32:11;18.67;;;4.47;;
44822;SDS011;51097;51.984;5.650;2024-01-27T01:34:37;17.58;;;4.85;;
44822;SDS011;51097;51.984;5.650;2024-01-27T01:37:02;14.93;;;4.63;;
44822;SDS011;51097;51.984;5.650;2024-01-27T01:39:28;14.82;;;5.57;;
44822;SDS011;51097;51.984;5.650;2024-01-27T01:41:54;11.75;;;4.20;;
44822;SDS011;51097;51.984;5.650;2024-01-27T01:44:19;17.80;;;5.15;;
44822;SDS011;51097;51.984;5.650;2024-01-27T01:46:46;14.10;;;4.03;;
44822;SDS011;51097;51.984;5.650;2024-01-27T01:49:12;16.40;;;5.30;;
44822;SDS011;51097;51.984;5.650;2024-01-27T01:51:37;12.80;;;4.97;;
44822;SDS011;51097;51.984;5.650;2024-01-27T01:54:03;13.88;;;4.32;;
44822;SDS011;51097;51.984;5.650;2024-01-27T01:56:30;11.27;;;4.57;;
44822;SDS011;51097;51.984;5.650;2024-01-27T01:58:55;20.60;;;4.97;;
44822;SDS011;51097;51.984;5.650;2024-01-27T02:01:21;12.82;;;4.65;;
44822;SDS011;51097;51.984;5.650;2024-01-27T02:03:56;13.00;;;4.47;;
44822;SDS011;51097;51.984;5.650;2024-01-27T02:06:22;9.63;;;3.78;;
44822;SDS011;51097;51.984;5.650;2024-01-27T02:08:48;12.95;;;4.82;;
44822;SDS011;51097;51.984;5.650;2024-01-27T02:11:14;17.00;;;4.28;;
44822;SDS011;51097;51.984;5.650;2024-01-27T02:13:40;14.25;;;6.18;;
44822;SDS011;51097;51.984;5.650;2024-01-27T02:16:06;13.25;;;4.22;;
44822;SDS011;51097;51.984;5.650;2024-01-27T02:18:32;17.23;;;5.32;;
44822;SDS011;51097;51.984;5.650;2024-01-27T02:20:57;13.27;;;4.88;;
44822;SDS011;51097;51.984;5.650;2024-01-27T02:23:23;10.27;;;3.78;;
44822;SDS011;51097;51.984;5.650;2024-01-27T02:25:49;16.45;;;4.45;;
44822;SDS011;51097;51.984;5.650;2024-01-27T02:28:15;9.68;;;4.43;;
44822;SDS011;51097;51.984;5.650;2024-01-27T02:30:41;12.02;;;4.10;;
44822;SDS011;51097;51.984;5.650;2024-01-27T02:33:07;9.55;;;3.70;;
44822;SDS011;51097;51.984;5.650;2024-01-27T02:35:32;12.15;;;5.55;;
44822;SDS011;51097;51.984;5.650;2024-01-27T02:37:58;17.30;;;4.75;;
44822;SDS011;51097;51.984;5.650;2024-01-27T02:40:24;12.32;;;4.57;;
44822;SDS011;51097;51.984;5.650;2024-01-27T02:42:49;11.70;;;4.45;;
44822;SDS011;51097;51.984;5.650;2024-01-27T02:45:15;15.00;;;5.03;;
44822;SDS011;51097;51.984;5.650;2024-01-27T02:47:40;17.45;;;4.85;;
44822;SDS011;51097;51.984;5.650;2024-01-27T02:50:06;11.25;;;5.15;;
44822;SDS011;51097;51.984;5.650;2024-01-27T02:52:32;10.38;;;5.47;;
44822;SDS011;51097;51.984;5.650;2024-01-27T02:54:58;16.00;;;5.20;;
44822;SDS011;51097;51.984;5.650;2024-01-27T02:57:23;15.00;;;5.55;;
44822;SDS011;51097;51.984;5.650;2024-01-27T02:59:49;18.08;;;4.97;;
44822;SDS011;51097;51.984;5.650;2024-01-27T03:02:15;15.68;;;5.88;;
44822;SDS011;51097;51.984;5.650;2024-01-27T03:04:41;13.10;;;4.78;;
44822;SDS011;51097;51.984;5.650;2024-01-27T03:07:07;19.10;;;5.80;;
44822;SDS011;51097;51.984;5.650;2024-01-27T03:09:32;16.58;;;5.55;;
44822;SDS011;51097;51.984;5.650;2024-01-27T03:11:58;13.82;;;5.53;;
44822;SDS011;51097;51.984;5.650;2024-01-27T03:14:24;15.02;;;5.57;;
44822;SDS011;51097;51.984;5.650;2024-01-27T03:16:50;15.15;;;4.82;;
44822;SDS011;51097;51.984;5.650;2024-01-27T03:19:15;20.67;;;5.78;;
44822;SDS011;51097;51.984;5.650;2024-01-27T03:21:41;12.60;;;5.75;;
44822;SDS011;51097;51.984;5.650;2024-01-27T03:24:07;13.75;;;4.97;;
44822;SDS011;51097;51.984;5.650;2024-01-27T03:26:33;13.80;;;5.15;;
44822;SDS011;51097;51.984;5.650;2024-01-27T03:28:58;16.20;;;5.93;;
44822;SDS011;51097;51.984;5.650;2024-01-27T03:31:29;14.93;;;4.68;;
44822;SDS011;51097;51.984;5.650;2024-01-27T03:33:59;19.42;;;5.95;;
44822;SDS011;51097;51.984;5.650;2024-01-27T03:36:25;15.82;;;5.07;;
44822;SDS011;51097;51.984;5.650;2024-01-27T03:38:50;10.73;;;5.35;;
44822;SDS011;51097;51.984;5.650;2024-01-27T03:41:16;20.77;;;7.15;;
44822;SDS011;51097;51.984;5.650;2024-01-27T03:43:42;9.93;;;5.38;;
44822;SDS011;51097;51.984;5.650;2024-01-27T03:46:07;15.88;;;5.50;;
44822;SDS011;51097;51.984;5.650;2024-01-27T03:48:33;16.50;;;6.05;;
44822;SDS011;51097;51.984;5.650;2024-01-27T03:51:00;18.73;;;6.07;;
44822;SDS011;51097;51.984;5.650;2024-01-27T03:53:26;17.27;;;5.65;;
44822;SDS011;51097;51.984;5.650;2024-01-27T03:55:52;17.08;;;7.00;;
44822;SDS011;51097;51.984;5.650;2024-01-27T03:58:17;18.80;;;6.93;;
44822;SDS011;51097;51.984;5.650;2024-01-27T04:00:43;14.98;;;6.13;;
44822;SDS011;51097;51.984;5.650;2024-01-27T04:03:09;16.48;;;6.65;;
44822;SDS011;51097;51.984;5.650;2024-01-27T04:05:34;20.13;;;6.43;;
44822;SDS011;51097;51.984;5.650;2024-01-27T04:08:00;18.02;;;6.70;;
44822;SDS011;51097;51.984;5.650;2024-01-27T04:10:26;20.85;;;6.57;;
44822;SDS011;51097;51.984;5.650;2024-01-27T04:12:52;12.85;;;6.20;;
44822;SDS011;51097;51.984;5.650;2024-01-27T04:15:18;14.38;;;7.60;;
44822;SDS011;51097;51.984;5.650;2024-01-27T04:17:43;15.27;;;7.50;;
44822;SDS011;51097;51.984;5.650;2024-01-27T04:20:09;27.23;;;9.07;;
44822;SDS011;51097;51.984;5.650;2024-01-27T04:22:35;18.40;;;7.55;;
44822;SDS011;51097;51.984;5.650;2024-01-27T04:25:01;21.65;;;8.57;;
44822;SDS011;51097;51.984;5.650;2024-01-27T04:27:27;17.88;;;8.50;;
44822;SDS011;51097;51.984;5.650;2024-01-27T04:29:53;18.08;;;9.18;;
44822;SDS011;51097;51.984;5.650;2024-01-27T04:32:18;17.92;;;8.07;;
44822;SDS011;51097;51.984;5.650;2024-01-27T04:34:44;19.10;;;9.52;;
44822;SDS011;51097;51.984;5.650;2024-01-27T04:37:10;17.63;;;8.27;;
44822;SDS011;51097;51.984;5.650;2024-01-27T04:39:35;20.17;;;9.80;;
44822;SDS011;51097;51.984;5.650;2024-01-27T04:42:02;15.73;;;8.25;;
44822;SDS011;51097;51.984;5.650;2024-01-27T04:44:28;15.32;;;8.13;;
44822;SDS011;51097;51.984;5.650;2024-01-27T04:46:53;13.20;;;8.77;;
44822;SDS011;51097;51.984;5.650;2024-01-27T04:49:19;21.17;;;9.20;;
44822;SDS011;51097;51.984;5.650;2024-01-27T04:51:44;18.30;;;9.95;;
44822;SDS011;51097;51.984;5.650;2024-01-27T04:54:10;21.13;;;10.07;;
44822;SDS011;51097;51.984;5.650;2024-01-27T04:56:35;17.70;;;9.35;;
44822;SDS011;51097;51.984;5.650;2024-01-27T04:59:01;21.23;;;10.50;;
44822;SDS011;51097;51.984;5.650;2024-01-27T05:01:27;23.35;;;11.27;;
44822;SDS011;51097;51.984;5.650;2024-01-27T05:03:53;17.30;;;9.98;;
44822;SDS011;51097;51.984;5.650;2024-01-27T05:06:18;16.48;;;10.80;;
44822;SDS011;51097;51.984;5.650;2024-01-27T05:08:44;16.45;;;10.55;;
44822;SDS011;51097;51.984;5.650;2024-01-27T05:11:10;21.00;;;10.73;;
44822;SDS011;51097;51.984;5.650;2024-01-27T05:13:36;23.88;;;11.77;;
44822;SDS011;51097;51.984;5.650;2024-01-27T05:16:02;27.35;;;11.32;;
44822;SDS011;51097;51.984;5.650;2024-01-27T05:18:28;16.52;;;11.27;;
44822;SDS011;51097;51.984;5.650;2024-01-27T05:20:54;25.05;;;10.80;;
44822;SDS011;51097;51.984;5.650;2024-01-27T05:23:20;22.75;;;10.80;;
44822;SDS011;51097;51.984;5.650;2024-01-27T05:25:45;21.00;;;11.07;;
44822;SDS011;51097;51.984;5.650;2024-01-27T05:28:11;22.88;;;11.75;;
44822;SDS011;51097;51.984;5.650;2024-01-27T05:30:36;22.05;;;12.93;;
44822;SDS011;51097;51.984;5.650;2024-01-27T05:33:02;29.65;;;13.52;;
44822;SDS011;51097;51.984;5.650;2024-01-27T05:35:27;19.25;;;10.82;;
44822;SDS011;51097;51.984;5.650;2024-01-27T05:37:53;21.38;;;11.52;;
44822;SDS011;51097;51.984;5.650;2024-01-27T05:40:19;26.05;;;11.85;;
44822;SDS011;51097;51.984;5.650;2024-01-27T05:42:44;27.90;;;12.23;;
44822;SDS011;51097;51.984;5.650;2024-01-27T05:45:10;22.88;;;10.98;;
44822;SDS011;51097;51.984;5.650;2024-01-27T05:47:37;24.15;;;11.02;;
44822;SDS011;51097;51.984;5.650;2024-01-27T05:50:02;23.33;;;11.52;;
44822;SDS011;51097;51.984;5.650;2024-01-27T05:52:29;24.60;;;10.70;;
44822;SDS011;51097;51.984;5.650;2024-01-27T05:54:55;23.42;;;11.63;;
44822;SDS011;51097;51.984;5.650;2024-01-27T05:57:20;31.55;;;12.77;;
44822;SDS011;51097;51.984;5.650;2024-01-27T05:59:46;22.08;;;11.32;;
44822;SDS011;51097;51.984;5.650;2024-01-27T06:02:12;22.73;;;11.30;;
44822;SDS011;51097;51.984;5.650;2024-01-27T06:04:37;22.38;;;11.60;;
44822;SDS011;51097;51.984;5.650;2024-01-27T06:07:03;22.02;;;11.15;;
44822;SDS011;51097;51.984;5.650;2024-01-27T06:09:28;17.50;;;10.48;;
44822;SDS011;51097;51.984;5.650;2024-01-27T06:11:54;19.33;;;10.90;;
44822;SDS011;51097;51.984;5.650;2024-01-27T06:14:23;14.23;;;9.65;;
44822;SDS011;51097;51.984;5.650;2024-01-27T06:16:48;24.02;;;10.93;;
44822;SDS011;51097;51.984;5.650;2024-01-27T06:19:16;25.15;;;12.10;;
44822;SDS011;51097;51.984;5.650;2024-01-27T06:21:42;19.00;;;11.55;;
44822;SDS011;51097;51.984;5.650;2024-01-27T06:24:07;21.42;;;10.45;;
44822;SDS011;51097;51.984;5.650;2024-01-27T06:26:33;19.15;;;10.10;;
44822;SDS011;51097;51.984;5.650;2024-01-27T06:28:58;21.33;;;11.57;;
44822;SDS011;51097;51.984;5.650;2024-01-27T06:31:25;30.67;;;11.45;;
44822;SDS011;51097;51.984;5.650;2024-01-27T06:33:51;22.13;;;11.35;;
44822;SDS011;51097;51.984;5.650;2024-01-27T06:36:16;24.00;;;11.50;;
44822;SDS011;51097;51.984;5.650;2024-01-27T06:38:42;19.58;;;12.73;;
44822;SDS011;51097;51.984;5.650;2024-01-27T06:41:07;25.13;;;11.23;;
44822;SDS011;51097;51.984;5.650;2024-01-27T06:43:33;22.10;;;10.95;;
44822;SDS011;51097;51.984;5.650;2024-01-27T06:45:58;25.45;;;12.40;;
44822;SDS011;51097;51.984;5.650;2024-01-27T06:48:24;24.27;;;11.18;;
44822;SDS011;51097;51.984;5.650;2024-01-27T06:50:52;21.40;;;11.68;;
44822;SDS011;51097;51.984;5.650;2024-01-27T06:53:18;23.58;;;12.02;;
44822;SDS011;51097;51.984;5.650;2024-01-27T06:55:45;22.85;;;10.95;;
44822;SDS011;51097;51.984;5.650;2024-01-27T06:58:10;19.90;;;12.25;;
44822;SDS011;51097;51.984;5.650;2024-01-27T07:00:36;22.73;;;10.63;;
44822;SDS011;51097;51.984;5.650;2024-01-27T07:03:02;17.98;;;11.13;;
44822;SDS011;51097;51.984;5.650;2024-01-27T07:05:27;22.02;;;10.27;;
44822;SDS011;51097;51.984;5.650;2024-01-27T07:07:53;23.50;;;11.65;;
44822;SDS011;51097;51.984;5.650;2024-01-27T07:10:19;19.52;;;11.75;;
44822;SDS011;51097;51.984;5.650;2024-01-27T07:12:44;16.83;;;10.30;;
44822;SDS011;51097;51.984;5.650;2024-01-27T07:15:10;25.70;;;12.10;;
44822;SDS011;51097;51.984;5.650;2024-01-27T07:17:35;22.58;;;12.40;;
44822;SDS011;51097;51.984;5.650;2024-01-27T07:20:01;25.27;;;11.93;;
44822;SDS011;51097;51.984;5.650;2024-01-27T07:22:26;19.50;;;11.25;;
44822;SDS011;51097;51.984;5.650;2024-01-27T07:24:53;19.63;;;11.50;;
44822;SDS011;51097;51.984;5.650;2024-01-27T07:27:18;17.00;;;11.57;;
44822;SDS011;51097;51.984;5.650;2024-01-27T07:29:44;25.38;;;11.38;;
44822;SDS011;51097;51.984;5.650;2024-01-27T07:32:09;19.15;;;11.90;;
44822;SDS011;51097;51.984;5.650;2024-01-27T07:34:40;19.77;;;11.90;;
44822;SDS011;51097;51.984;5.650;2024-01-27T07:37:09;18.92;;;11.73;;
44822;SDS011;51097;51.984;5.650;2024-01-27T07:39:34;24.80;;;13.65;;
44822;SDS011;51097;51.984;5.650;2024-01-27T07:42:00;27.38;;;13.07;;
44822;SDS011;51097;51.984;5.650;2024-01-27T07:44:26;19.30;;;13.27;;
44822;SDS011;51097;51.984;5.650;2024-01-27T07:46:52;22.67;;;14.35;;
44822;SDS011;51097;51.984;5.650;2024-01-27T07:49:20;28.55;;;14.02;;
44822;SDS011;51097;51.984;5.650;2024-01-27T07:51:45;21.65;;;14.15;;
44822;SDS011;51097;51.984;5.650;2024-01-27T07:54:11;29.05;;;15.55;;
44822;SDS011;51097;51.984;5.650;2024-01-27T07:56:40;22.38;;;14.85;;
44822;SDS011;51097;51.984;5.650;2024-01-27T07:59:06;25.43;;;15.63;;
44822;SDS011;51097;51.984;5.650;2024-01-27T08:01:38;25.88;;;14.30;;
44822;SDS011;51097;51.984;5.650;2024-01-27T08:04:04;31.65;;;15.07;;
44822;SDS011;51097;51.984;5.650;2024-01-27T08:06:30;29.00;;;17.75;;
44822;SDS011;51097;51.984;5.650;2024-01-27T08:08:56;26.10;;;16.27;;
44822;SDS011;51097;51.984;5.650;2024-01-27T08:11:21;20.67;;;15.23;;
44822;SDS011;51097;51.984;5.650;2024-01-27T08:13:47;31.17;;;15.52;;
44822;SDS011;51097;51.984;5.650;2024-01-27T08:16:13;31.50;;;16.10;;
44822;SDS011;51097;51.984;5.650;2024-01-27T08:18:39;21.83;;;16.92;;
44822;SDS011;51097;51.984;5.650;2024-01-27T08:21:07;31.38;;;17.13;;
44822;SDS011;51097;51.984;5.650;2024-01-27T08:23:33;24.42;;;15.68;;
44822;SDS011;51097;51.984;5.650;2024-01-27T08:25:58;31.02;;;17.35;;
44822;SDS011;51097;51.984;5.650;2024-01-27T08:28:24;24.30;;;15.98;;
44822;SDS011;51097;51.984;5.650;2024-01-27T08:30:49;32.13;;;16.73;;
44822;SDS011;51097;51.984;5.650;2024-01-27T08:33:15;33.60;;;16.08;;
44822;SDS011;51097;51.984;5.650;2024-01-27T08:35:41;25.48;;;16.23;;
44822;SDS011;51097;51.984;5.650;2024-01-27T08:38:06;23.02;;;16.80;;
44822;SDS011;51097;51.984;5.650;2024-01-27T08:40:34;29.25;;;18.17;;
44822;SDS011;51097;51.984;5.650;2024-01-27T08:43:00;23.67;;;17.15;;
44822;SDS011;51097;51.984;5.650;2024-01-27T08:45:26;28.67;;;17.20;;
44822;SDS011;51097;51.984;5.650;2024-01-27T08:47:52;33.58;;;16.98;;
44822;SDS011;51097;51.984;5.650;2024-01-27T08:50:18;28.88;;;17.27;;
44822;SDS011;51097;51.984;5.650;2024-01-27T08:52:46;33.53;;;19.35;;
44822;SDS011;51097;51.984;5.650;2024-01-27T08:55:12;24.92;;;17.10;;
44822;SDS011;51097;51.984;5.650;2024-01-27T08:57:37;28.10;;;16.50;;
44822;SDS011;51097;51.984;5.650;2024-01-27T09:00:03;34.40;;;17.70;;
44822;SDS011;51097;51.984;5.650;2024-01-27T09:02:29;33.80;;;20.15;;
44822;SDS011;51097;51.984;5.650;2024-01-27T09:04:55;30.17;;;17.67;;
44822;SDS011;51097;51.984;5.650;2024-01-27T09:07:21;28.27;;;17.75;;
44822;SDS011;51097;51.984;5.650;2024-01-27T09:09:46;27.15;;;18.40;;
44822;SDS011;51097;51.984;5.650;2024-01-27T09:12:12;32.65;;;18.25;;
44822;SDS011;51097;51.984;5.650;2024-01-27T09:14:38;26.48;;;17.90;;
44822;SDS011;51097;51.984;5.650;2024-01-27T09:17:04;32.75;;;19.33;;
44822;SDS011;51097;51.984;5.650;2024-01-27T09:19:29;28.80;;;18.60;;
44822;SDS011;51097;51.984;5.650;2024-01-27T09:21:55;28.15;;;18.73;;
44822;SDS011;51097;51.984;5.650;2024-01-27T09:24:20;27.65;;;17.55;;
44822;SDS011;51097;51.984;5.650;2024-01-27T09:26:46;37.22;;;18.90;;
44822;SDS011;51097;51.984;5.650;2024-01-27T09:29:52;35.03;;;18.40;;
44822;SDS011;51097;51.984;5.650;2024-01-27T09:49:06;25.75;;;17.42;;
44822;SDS011;51097;51.984;5.650;2024-01-27T09:51:59;24.98;;;18.00;;
44822;SDS011;51097;51.984;5.650;2024-01-27T10:11:47;28.17;;;18.52;;
44822;SDS011;51097;51.984;5.650;2024-01-27T10:14:14;31.33;;;19.60;;
44822;SDS011;51097;51.984;5.650;2024-01-27T10:16:40;36.72;;;19.05;;
44822;SDS011;51097;51.984;5.650;2024-01-27T10:19:19;26.40;;;17.15;;
44822;SDS011;51097;51.984;5.650;2024-01-27T10:21:45;31.30;;;18.02;;
44822;SDS011;51097;51.984;5.650;2024-01-27T10:24:19;26.13;;;18.67;;
44822;SDS011;51097;51.984;5.650;2024-01-27T10:26:45;29.55;;;19.15;;
44822;SDS011;51097;51.984;5.650;2024-01-27T10:29:20;30.40;;;17.20;;
44822;SDS011;51097;51.984;5.650;2024-01-27T10:45:29;30.33;;;17.17;;
44822;SDS011;51097;51.984;5.650;2024-01-27T10:48:05;25.48;;;16.88;;
44822;SDS011;51097;51.984;5.650;2024-01-27T10:50:34;24.67;;;16.90;;
44822;SDS011;51097;51.984;5.650;2024-01-27T10:56:48;33.20;;;18.52;;
44822;SDS011;51097;51.984;5.650;2024-01-27T10:59:18;36.25;;;22.52;;
44822;SDS011;51097;51.984;5.650;2024-01-27T11:01:46;33.47;;;21.80;;
44822;SDS011;51097;51.984;5.650;2024-01-27T11:04:23;29.25;;;20.63;;
44822;SDS011;51097;51.984;5.650;2024-01-27T11:06:50;27.23;;;19.25;;
44822;SDS011;51097;51.984;5.650;2024-01-27T11:09:19;30.50;;;18.25;;
44822;SDS011;51097;51.984;5.650;2024-01-27T11:11:50;29.80;;;17.33;;
44822;SDS011;51097;51.984;5.650;2024-01-27T11:14:28;25.63;;;16.02;;
44822;SDS011;51097;51.984;5.650;2024-01-27T11:16:57;25.13;;;13.68;;
44822;SDS011;51097;51.984;5.650;2024-01-27T11:19:44;28.17;;;14.85;;
44822;SDS011;51097;51.984;5.650;2024-01-27T11:22:28;25.10;;;13.48;;
44822;SDS011;51097;51.984;5.650;2024-01-27T11:27:37;24.65;;;12.70;;
44822;SDS011;51097;51.984;5.650;2024-01-27T11:30:04;26.10;;;14.35;;
44822;SDS011;51097;51.984;5.650;2024-01-27T11:32:32;26.45;;;14.15;;
44822;SDS011;51097;51.984;5.650;2024-01-27T11:35:00;27.67;;;14.13;;
44822;SDS011;51097;51.984;5.650;2024-01-27T11:37:30;22.10;;;13.48;;
44822;SDS011;51097;51.984;5.650;2024-01-27T11:40:05;23.40;;;14.55;;
44822;SDS011;51097;51.984;5.650;2024-01-27T11:42:53;25.48;;;12.85;;
44822;SDS011;51097;51.984;5.650;2024-01-27T11:45:23;24.73;;;13.00;;
44822;SDS011;51097;51.984;5.650;2024-01-27T11:54:57;22.58;;;9.57;;
44822;SDS011;51097;51.984;5.650;2024-01-27T11:57:24;20.67;;;9.63;;
44822;SDS011;51097;51.984;5.650;2024-01-27T11:59:50;20.48;;;8.60;;
44822;SDS011;51097;51.984;5.650;2024-01-27T12:02:19;18.42;;;9.15;;
44822;SDS011;51097;51.984;5.650;2024-01-27T12:04:47;19.88;;;10.95;;
44822;SDS011;51097;51.984;5.650;2024-01-27T12:07:17;19.25;;;9.77;;
44822;SDS011;51097;51.984;5.650;2024-01-27T12:16:34;16.35;;;8.60;;
44822;SDS011;51097;51.984;5.650;2024-01-27T12:22:28;21.73;;;8.07;;
44822;SDS011;51097;51.984;5.650;2024-01-27T12:25:15;19.38;;;7.45;;
44822;SDS011;51097;51.984;5.650;2024-01-27T12:27:41;16.85;;;6.80;;
44822;SDS011;51097;51.984;5.650;2024-01-27T12:30:07;14.77;;;6.03;;
44822;SDS011;51097;51.984;5.650;2024-01-27T12:32:33;17.27;;;7.00;;
44822;SDS011;51097;51.984;5.650;2024-01-27T12:35:04;15.98;;;7.80;;
44822;SDS011;51097;51.984;5.650;2024-01-27T12:37:30;12.32;;;7.25;;
44822;SDS011;51097;51.984;5.650;2024-01-27T12:39:56;20.20;;;7.68;;
44822;SDS011;51097;51.984;5.650;2024-01-27T12:45:00;11.30;;;6.60;;
44822;SDS011;51097;51.984;5.650;2024-01-27T12:47:26;16.30;;;7.82;;
44822;SDS011;51097;51.984;5.650;2024-01-27T12:49:54;23.52;;;7.35;;
44822;SDS011;51097;51.984;5.650;2024-01-27T12:52:20;15.45;;;7.20;;
44822;SDS011;51097;51.984;5.650;2024-01-27T12:54:57;13.98;;;7.25;;
44822;SDS011;51097;51.984;5.650;2024-01-27T12:57:25;15.90;;;8.50;;
44822;SDS011;51097;51.984;5.650;2024-01-27T12:59:51;15.15;;;7.03;;
44822;SDS011;51097;51.984;5.650;2024-01-27T13:02:25;20.23;;;7.63;;
44822;SDS011;51097;51.984;5.650;2024-01-27T13:04:58;21.90;;;7.93;;
44822;SDS011;51097;51.984;5.650;2024-01-27T13:08:25;11.52;;;7.18;;
44822;SDS011;51097;51.984;5.650;2024-01-27T13:23:39;11.15;;;5.20;;
44822;SDS011;51097;51.984;5.650;2024-01-27T13:33:42;11.82;;;4.35;;
44822;SDS011;51097;51.984;5.650;2024-01-27T13:36:08;14.73;;;4.55;;
44822;SDS011;51097;51.984;5.650;2024-01-27T13:38:41;13.25;;;4.65;;
44822;SDS011;51097;51.984;5.650;2024-01-27T13:41:15;10.38;;;5.35;;
44822;SDS011;51097;51.984;5.650;2024-01-27T13:43:52;11.88;;;5.05;;
44822;SDS011;51097;51.984;5.650;2024-01-27T13:46:40;12.98;;;4.10;;
44822;SDS011;51097;51.984;5.650;2024-01-27T13:52:53;15.95;;;4.60;;
44822;SDS011;51097;51.984;5.650;2024-01-27T13:55:19;13.45;;;4.95;;
44822;SDS011;51097;51.984;5.650;2024-01-27T13:57:44;15.80;;;4.75;;
44822;SDS011;51097;51.984;5.650;2024-01-27T14:00:10;15.05;;;5.40;;
44822;SDS011;51097;51.984;5.650;2024-01-27T14:02:36;9.10;;;4.57;;
44822;SDS011;51097;51.984;5.650;2024-01-27T14:05:02;12.90;;;5.47;;
44822;SDS011;51097;51.984;5.650;2024-01-27T14:07:29;11.45;;;4.70;;
44822;SDS011;51097;51.984;5.650;2024-01-27T14:09:54;9.25;;;5.25;;
44822;SDS011;51097;51.984;5.650;2024-01-27T14:12:20;13.00;;;4.63;;
44822;SDS011;51097;51.984;5.650;2024-01-27T14:14:46;11.48;;;5.97;;
44822;SDS011;51097;51.984;5.650;2024-01-27T14:17:13;10.40;;;4.53;;
44822;SDS011;51097;51.984;5.650;2024-01-27T14:19:39;16.58;;;4.75;;
44822;SDS011;51097;51.984;5.650;2024-01-27T14:22:05;12.70;;;4.47;;
44822;SDS011;51097;51.984;5.650;2024-01-27T14:24:31;11.85;;;5.32;;
44822;SDS011;51097;51.984;5.650;2024-01-27T14:26:58;14.18;;;5.00;;
44822;SDS011;51097;51.984;5.650;2024-01-27T14:29:24;8.25;;;4.55;;
44822;SDS011;51097;51.984;5.650;2024-01-27T14:31:51;12.23;;;6.00;;
44822;SDS011;51097;51.984;5.650;2024-01-27T14:34:16;13.35;;;6.45;;
44822;SDS011;51097;51.984;5.650;2024-01-27T14:36:42;12.10;;;4.75;;
44822;SDS011;51097;51.984;5.650;2024-01-27T14:39:09;18.92;;;5.72;;
44822;SDS011;51097;51.984;5.650;2024-01-27T14:41:36;10.98;;;5.55;;
44822;SDS011;51097;51.984;5.650;2024-01-27T14:44:02;14.73;;;5.18;;
44822;SDS011;51097;51.984;5.650;2024-01-27T14:46:28;15.35;;;5.25;;
44822;SDS011;51097;51.984;5.650;2024-01-27T14:48:54;15.63;;;4.82;;
44822;SDS011;51097;51.984;5.650;2024-01-27T14:51:19;14.25;;;5.30;;
44822;SDS011;51097;51.984;5.650;2024-01-27T14:53:46;19.55;;;5.88;;
44822;SDS011;51097;51.984;5.650;2024-01-27T14:56:12;12.30;;;5.80;;
44822;SDS011;51097;51.984;5.650;2024-01-27T14:58:38;14.40;;;6.00;;
44822;SDS011;51097;51.984;5.650;2024-01-27T15:01:04;16.40;;;5.82;;
44822;SDS011;51097;51.984;5.650;2024-01-27T15:03:30;11.50;;;5.57;;
44822;SDS011;51097;51.984;5.650;2024-01-27T15:05:55;18.90;;;6.40;;
44822;SDS011;51097;51.984;5.650;2024-01-27T15:08:21;10.73;;;5.57;;
44822;SDS011;51097;51.984;5.650;2024-01-27T15:10:47;13.32;;;6.22;;
44822;SDS011;51097;51.984;5.650;2024-01-27T15:13:12;14.10;;;5.95;;
44822;SDS011;51097;51.984;5.650;2024-01-27T15:15:39;11.73;;;5.25;;
44822;SDS011;51097;51.984;5.650;2024-01-27T15:18:05;14.50;;;6.10;;
44822;SDS011;51097;51.984;5.650;2024-01-27T15:20:32;9.73;;;5.72;;
44822;SDS011;51097;51.984;5.650;2024-01-27T15:22:58;13.00;;;6.25;;
44822;SDS011;51097;51.984;5.650;2024-01-27T15:25:24;13.50;;;5.40;;
44822;SDS011;51097;51.984;5.650;2024-01-27T15:27:50;14.55;;;6.90;;
44822;SDS011;51097;51.984;5.650;2024-01-27T15:30:16;11.50;;;7.43;;
44822;SDS011;51097;51.984;5.650;2024-01-27T15:32:42;17.02;;;6.25;;
44822;SDS011;51097;51.984;5.650;2024-01-27T15:35:11;15.00;;;5.35;;
44822;SDS011;51097;51.984;5.650;2024-01-27T15:37:37;21.13;;;6.85;;
44822;SDS011;51097;51.984;5.650;2024-01-27T15:40:03;15.68;;;5.60;;
44822;SDS011;51097;51.984;5.650;2024-01-27T15:42:30;10.88;;;5.18;;
44822;SDS011;51097;51.984;5.650;2024-01-27T15:44:55;13.77;;;5.75;;
44822;SDS011;51097;51.984;5.650;2024-01-27T15:47:21;15.73;;;5.85;;
44822;SDS011;51097;51.984;5.650;2024-01-27T15:49:46;10.70;;;4.45;;
44822;SDS011;51097;51.984;5.650;2024-01-27T15:52:17;16.30;;;5.45;;
44822;SDS011;51097;51.984;5.650;2024-01-27T15:54:43;12.27;;;5.22;;
44822;SDS011;51097;51.984;5.650;2024-01-27T15:57:09;19.50;;;6.45;;
44822;SDS011;51097;51.984;5.650;2024-01-27T15:59:35;16.70;;;5.82;;
44822;SDS011;51097;51.984;5.650;2024-01-27T16:02:00;14.20;;;6.35;;
44822;SDS011;51097;51.984;5.650;2024-01-27T16:04:26;10.57;;;5.63;;
44822;SDS011;51097;51.984;5.650;2024-01-27T16:06:54;16.35;;;6.10;;